createdAt,value
2019-04-30T00:01:37.295Z,4.40
2019-04-30T00:04:22.815Z,4.47
2019-04-30T00:06:50.525Z,4.20
2019-04-30T00:09:20.947Z,4.50
2019-04-30T00:11:50.683Z,4.80
2019-04-30T00:14:17.935Z,4.90
2019-04-30T00:16:45.403Z,4.77
2019-04-30T00:19:15.773Z,4.90
2019-04-30T00:21:42.282Z,5.00
2019-04-30T00:24:10.330Z,4.80
2019-04-30T00:26:39.844Z,3.83
2019-04-30T00:29:07.419Z,5.07
2019-04-30T00:31:35.021Z,4.60
2019-04-30T00:34:02.528Z,4.90
2019-04-30T00:36:33.963Z,4.37
2019-04-30T00:38:59.337Z,4.90
2019-04-30T00:41:26.887Z,4.90
2019-04-30T00:43:55.200Z,4.87
2019-04-30T00:46:25.023Z,5.00
2019-04-30T00:48:52.136Z,5.73
2019-04-30T00:51:21.303Z,5.90
2019-04-30T00:53:51.229Z,5.20
2019-04-30T00:56:19.841Z,5.47
2019-04-30T00:58:47.644Z,4.53
2019-04-30T01:01:52.925Z,5.67
2019-04-30T01:04:34.935Z,4.70
2019-04-30T01:07:22.010Z,5.37
2019-04-30T01:09:50.029Z,5.57
2019-04-30T01:12:24.681Z,5.10
2019-04-30T01:14:46.769Z,5.30
2019-04-30T01:17:14.098Z,5.40
2019-04-30T01:19:41.472Z,5.10
2019-04-30T01:22:09.112Z,5.80
2019-04-30T01:24:38.610Z,5.57
2019-04-30T01:27:07.094Z,5.50
2019-04-30T01:29:40.749Z,5.80
2019-04-30T01:32:04.932Z,6.00
2019-04-30T01:34:32.312Z,5.47
2019-04-30T01:36:59.666Z,5.97
2019-04-30T01:39:29.499Z,5.27
2019-04-30T01:41:58.581Z,4.63
2019-04-30T01:44:25.987Z,5.67
2019-04-30T01:46:53.470Z,5.70
2019-04-30T01:49:25.681Z,6.20
2019-04-30T01:51:52.809Z,5.20
2019-04-30T01:54:23.956Z,5.43
2019-04-30T01:57:07.052Z,5.13
2019-04-30T01:59:53.192Z,5.90
2019-04-30T02:02:22.494Z,5.50
2019-04-30T02:04:49.840Z,6.07
2019-04-30T02:07:18.974Z,6.17
2019-04-30T02:09:46.486Z,5.50
2019-04-30T02:12:13.974Z,6.10
2019-04-30T02:14:41.405Z,5.77
2019-04-30T02:17:09.388Z,5.80
2019-04-30T02:19:38.841Z,6.10
2019-04-30T02:22:06.192Z,6.40
2019-04-30T02:24:33.592Z,6.30
2019-04-30T02:27:00.951Z,6.00
2019-04-30T02:29:29.718Z,6.30
2019-04-30T02:31:57.174Z,6.80
2019-04-30T02:34:32.340Z,6.80
2019-04-30T02:37:21.065Z,6.40
2019-04-30T02:39:50.297Z,6.13
2019-04-30T02:42:20.148Z,6.07
2019-04-30T02:44:50.392Z,6.73
2019-04-30T02:47:20.954Z,6.70
2019-04-30T02:49:53.417Z,5.90
2019-04-30T02:52:23.414Z,6.80
2019-04-30T02:54:53.232Z,7.17
2019-04-30T02:57:23.494Z,6.97
2019-04-30T03:00:13.691Z,6.40
2019-04-30T03:02:41.174Z,7.17
2019-04-30T03:05:12.882Z,7.57
2019-04-30T03:07:40.510Z,6.60
2019-04-30T03:10:10.112Z,6.43
2019-04-30T03:12:36.938Z,7.10
2019-04-30T03:15:05.587Z,6.67
2019-04-30T03:18:09.886Z,6.63
2019-04-30T03:20:56.209Z,7.30
2019-04-30T03:23:23.603Z,7.20
2019-04-30T03:25:51.094Z,7.13
2019-04-30T03:28:20.163Z,6.77
2019-04-30T03:30:56.099Z,7.53
2019-04-30T03:33:17.097Z,7.20
2019-04-30T03:35:48.085Z,7.83
2019-04-30T03:38:13.854Z,7.03
2019-04-30T03:40:41.318Z,6.63
2019-04-30T03:43:10.321Z,7.50
2019-04-30T03:45:40.310Z,7.10
2019-04-30T03:48:09.955Z,6.80
2019-04-30T03:50:49.371Z,6.77
2019-04-30T03:53:05.782Z,7.00
2019-04-30T03:55:33.166Z,6.43
2019-04-30T03:58:00.545Z,7.20
2019-04-30T04:00:42.617Z,6.87
2019-04-30T04:06:29.330Z,6.93
2019-04-30T04:09:12.584Z,7.47
2019-04-30T04:11:41.623Z,7.40
2019-04-30T04:14:09.418Z,6.90
2019-04-30T04:16:36.901Z,7.07
2019-04-30T04:19:04.420Z,6.93
2019-04-30T04:21:31.873Z,6.63
2019-04-30T04:24:00.208Z,7.53
2019-04-30T04:26:29.683Z,6.37
2019-04-30T04:28:59.205Z,6.80
2019-04-30T04:31:26.245Z,6.43
2019-04-30T04:33:53.646Z,6.30
2019-04-30T04:36:21.026Z,6.93
2019-04-30T04:38:50.747Z,7.27
2019-04-30T04:41:19.812Z,7.37
2019-04-30T04:43:46.956Z,7.23
2019-04-30T04:46:14.312Z,6.80
2019-04-30T04:48:41.658Z,7.90
2019-04-30T04:51:19.852Z,6.63
2019-04-30T04:53:40.146Z,6.03
2019-04-30T04:56:09.874Z,6.50
2019-04-30T04:58:36.847Z,6.17
2019-04-30T05:01:04.308Z,6.93
2019-04-30T05:03:37.032Z,6.50
2019-04-30T05:06:04.472Z,6.63
2019-04-30T05:08:31.974Z,5.90
2019-04-30T05:10:59.515Z,6.80
2019-04-30T05:13:28.944Z,6.97
2019-04-30T05:15:56.327Z,6.80
2019-04-30T05:18:23.740Z,6.13
2019-04-30T05:20:51.076Z,6.20
2019-04-30T05:23:21.563Z,6.40
2019-04-30T05:25:49.106Z,6.00
2019-04-30T05:28:18.752Z,6.30
2019-04-30T05:30:45.996Z,6.83
2019-04-30T05:33:13.378Z,6.27
2019-04-30T05:35:40.731Z,6.03
2019-04-30T05:38:09.309Z,6.30
2019-04-30T05:40:37.027Z,6.47
2019-04-30T05:43:04.385Z,6.10
2019-04-30T05:45:33.726Z,6.53
2019-04-30T05:48:01.154Z,6.00
2019-04-30T05:50:29.623Z,5.20
2019-04-30T05:52:59.101Z,6.63
2019-04-30T05:55:26.303Z,6.27
2019-04-30T05:57:56.355Z,7.27
2019-04-30T06:00:23.033Z,7.07
2019-04-30T06:02:50.505Z,6.17
2019-04-30T06:05:18.764Z,5.80
2019-04-30T06:07:46.477Z,5.90
2019-04-30T06:10:49.251Z,5.47
2019-04-30T06:13:25.078Z,6.63
2019-04-30T06:16:14.125Z,5.97
2019-04-30T06:18:42.326Z,5.77
2019-04-30T06:21:09.895Z,6.17
2019-04-30T06:23:39.209Z,6.30
2019-04-30T06:26:09.743Z,6.30
2019-04-30T06:28:35.880Z,6.00
2019-04-30T06:31:03.203Z,5.77
2019-04-30T06:33:30.707Z,6.37
2019-04-30T06:35:59.100Z,5.57
2019-04-30T06:38:26.536Z,5.67
2019-04-30T06:40:54.079Z,6.03
2019-04-30T06:43:22.348Z,5.73
2019-04-30T06:45:51.297Z,6.27
2019-04-30T06:48:19.988Z,5.87
2019-04-30T06:50:49.219Z,5.60
2019-04-30T06:53:17.010Z,5.47
2019-04-30T06:55:44.459Z,5.50
2019-04-30T06:58:15.458Z,4.70
2019-04-30T07:00:41.270Z,5.10
2019-04-30T07:03:09.577Z,5.60
2019-04-30T07:05:38.948Z,5.87
2019-04-30T07:08:36.094Z,5.57
2019-04-30T07:11:12.773Z,5.03
2019-04-30T07:13:43.342Z,5.10
2019-04-30T07:16:11.044Z,4.73
2019-04-30T07:18:38.838Z,5.07
2019-04-30T07:21:06.246Z,4.90
2019-04-30T07:23:33.613Z,5.03
2019-04-30T07:26:00.962Z,4.80
2019-04-30T07:28:43.816Z,4.80
2019-04-30T07:31:08.717Z,4.50
2019-04-30T07:33:26.970Z,4.80
2019-04-30T07:35:54.487Z,4.80
2019-04-30T07:38:22.040Z,4.40
2019-04-30T07:40:49.547Z,4.90
2019-04-30T07:43:18.870Z,4.87
2019-04-30T07:45:46.429Z,4.80
2019-04-30T07:48:14.023Z,5.00
2019-04-30T07:50:41.898Z,4.87
2019-04-30T07:53:11.290Z,4.57
2019-04-30T07:55:39.422Z,4.47
2019-04-30T07:58:08.934Z,4.67
2019-04-30T08:00:36.207Z,4.60
2019-04-30T08:03:14.430Z,4.03
2019-04-30T08:05:44.711Z,4.50
2019-04-30T08:08:20.964Z,4.60
2019-04-30T08:10:41.378Z,4.47
2019-04-30T08:13:14.103Z,4.43
2019-04-30T08:15:38.096Z,4.50
2019-04-30T08:18:06.061Z,4.53
2019-04-30T08:20:33.643Z,4.80
2019-04-30T08:23:13.413Z,4.10
2019-04-30T08:25:30.265Z,4.00
2019-04-30T08:27:59.143Z,4.00
2019-04-30T08:30:29.504Z,4.20
2019-04-30T08:32:59.646Z,3.90
2019-04-30T08:35:29.501Z,3.27
2019-04-30T08:37:56.564Z,3.90
2019-04-30T08:40:24.029Z,3.73
2019-04-30T08:42:51.401Z,3.80
2019-04-30T08:45:19.748Z,3.80
2019-04-30T08:47:49.119Z,3.53
2019-04-30T08:50:17.033Z,3.67
2019-04-30T08:52:44.613Z,3.73
2019-04-30T08:55:16.955Z,3.70
2019-04-30T08:57:43.087Z,3.97
2019-04-30T09:00:11.852Z,4.00
2019-04-30T09:02:40.306Z,3.40
2019-04-30T09:05:15.810Z,3.20
2019-04-30T09:07:43.187Z,3.47
2019-04-30T09:10:10.583Z,3.60
2019-04-30T09:12:39.877Z,3.20
2019-04-30T09:15:09.066Z,3.40
2019-04-30T09:17:38.500Z,3.30
2019-04-30T09:20:05.754Z,3.50
2019-04-30T09:22:33.316Z,3.23
2019-04-30T09:25:00.786Z,3.50
2019-04-30T09:27:29.661Z,3.20
2019-04-30T09:29:58.815Z,3.30
2019-04-30T09:32:26.319Z,3.70
2019-04-30T09:34:53.719Z,3.10
2019-04-30T09:37:21.123Z,3.40
2019-04-30T09:39:49.403Z,3.30
2019-04-30T09:42:19.263Z,3.70
2019-04-30T09:44:46.345Z,3.30
2019-04-30T09:47:13.851Z,4.03
2019-04-30T09:49:41.406Z,3.60
2019-04-30T09:52:09.517Z,3.67
2019-04-30T09:54:37.421Z,3.43
2019-04-30T09:57:05.292Z,3.40
2019-04-30T09:59:32.646Z,4.17
2019-04-30T10:02:00.196Z,4.43
2019-04-30T10:04:29.726Z,4.33
2019-04-30T10:06:56.945Z,3.67
2019-04-30T10:09:24.472Z,4.50
2019-04-30T10:11:59.607Z,4.20
2019-04-30T10:14:27.175Z,4.80
2019-04-30T10:17:12.909Z,5.03
2019-04-30T10:19:40.372Z,5.13
2019-04-30T10:22:27.745Z,5.63
2019-04-30T10:24:55.384Z,5.53
2019-04-30T10:27:24.039Z,4.87
2019-04-30T10:29:52.390Z,5.57
2019-04-30T10:32:19.824Z,6.50
2019-04-30T10:34:47.564Z,6.30
2019-04-30T10:37:15.169Z,6.33
2019-04-30T10:40:02.286Z,7.50
2019-04-30T10:42:35.243Z,6.87
2019-04-30T10:45:05.038Z,7.13
2019-04-30T10:47:32.800Z,6.87
2019-04-30T10:50:00.307Z,7.00
2019-04-30T10:52:29.240Z,6.80
2019-04-30T10:54:56.924Z,7.00
2019-04-30T10:57:24.445Z,6.10
2019-04-30T10:59:51.888Z,5.27
2019-04-30T11:02:19.338Z,4.60
2019-04-30T11:04:49.765Z,4.37
2019-04-30T11:07:18.642Z,4.90
2019-04-30T11:09:46.256Z,6.30
2019-04-30T11:12:13.610Z,5.70
2019-04-30T11:14:40.980Z,6.07
2019-04-30T11:17:09.898Z,6.37
2019-04-30T11:19:39.182Z,7.20
2019-04-30T11:22:06.866Z,7.07
2019-04-30T11:24:38.197Z,8.83
2019-04-30T11:27:04.124Z,8.67
2019-04-30T11:29:32.067Z,7.87
2019-04-30T11:32:14.009Z,8.27
2019-04-30T11:34:42.042Z,8.80
2019-04-30T11:37:27.573Z,8.67
2019-04-30T11:39:55.068Z,8.37
2019-04-30T11:42:22.733Z,9.10
2019-04-30T11:44:50.301Z,9.23
2019-04-30T11:47:30.319Z,9.20
2019-04-30T11:49:57.753Z,9.50
2019-04-30T11:52:25.263Z,8.87
2019-04-30T11:54:54.565Z,7.90
2019-04-30T11:57:22.070Z,8.57
2019-04-30T11:59:49.403Z,7.77
2019-04-30T12:02:24.162Z,9.33
2019-04-30T12:04:51.620Z,8.23
2019-04-30T12:07:41.520Z,9.03
2019-04-30T12:10:20.847Z,11.27
2019-04-30T12:12:48.724Z,12.50
2019-04-30T12:15:16.239Z,10.77
2019-04-30T12:17:43.685Z,11.33
2019-04-30T12:20:11.363Z,10.97
2019-04-30T12:22:39.693Z,9.93
2019-04-30T12:25:09.870Z,8.50
2019-04-30T12:27:38.694Z,7.80
2019-04-30T12:30:07.077Z,7.33
2019-04-30T12:32:35.271Z,9.80
2019-04-30T12:35:03.142Z,9.37
2019-04-30T12:37:55.201Z,10.10
2019-04-30T12:40:28.847Z,10.77
2019-04-30T12:42:51.862Z,11.20
2019-04-30T12:45:19.496Z,11.77
2019-04-30T12:47:51.626Z,11.03
2019-04-30T12:50:29.113Z,9.13
2019-04-30T12:53:02.686Z,11.23
2019-04-30T12:55:49.458Z,10.80
2019-04-30T12:58:16.824Z,10.70
2019-04-30T13:00:44.392Z,12.10
2019-04-30T13:03:11.997Z,10.80
2019-04-30T13:05:44.717Z,10.93
2019-04-30T13:08:12.879Z,11.50
2019-04-30T13:10:40.963Z,10.40
2019-04-30T13:13:09.293Z,9.27
2019-04-30T13:15:37.032Z,10.80
2019-04-30T13:18:04.432Z,10.50
2019-04-30T13:20:31.870Z,8.67
2019-04-30T13:22:59.344Z,9.17
2019-04-30T13:25:32.445Z,10.00
2019-04-30T13:28:00.954Z,11.70
2019-04-30T13:30:30.110Z,11.30
2019-04-30T13:33:20.493Z,9.77
2019-04-30T13:35:48.883Z,10.07
2019-04-30T13:38:24.662Z,9.70
2019-04-30T13:41:10.275Z,10.40
2019-04-30T13:43:56.154Z,8.40
2019-04-30T13:46:24.162Z,8.07
2019-04-30T13:48:51.638Z,8.13
2019-04-30T13:51:19.090Z,7.90
2019-04-30T13:53:46.480Z,9.70
2019-04-30T13:56:13.884Z,8.77
2019-04-30T13:58:42.016Z,8.90
2019-04-30T14:01:10.087Z,8.83
2019-04-30T14:03:53.875Z,8.63
2019-04-30T14:06:24.144Z,10.57
2019-04-30T14:08:56.320Z,10.37
2019-04-30T14:11:23.709Z,9.20
2019-04-30T14:13:51.616Z,10.47
2019-04-30T14:16:19.894Z,9.10
2019-04-30T14:19:11.278Z,8.83
2019-04-30T14:21:39.172Z,9.53
2019-04-30T14:24:07.125Z,10.33
2019-04-30T14:26:35.032Z,9.97
2019-04-30T14:29:05.169Z,10.60
2019-04-30T14:31:32.881Z,9.50
2019-04-30T14:34:00.677Z,10.30
2019-04-30T14:36:29.206Z,9.93
2019-04-30T14:39:10.520Z,9.80
2019-04-30T14:41:26.290Z,8.93
2019-04-30T14:44:00.508Z,7.90
2019-04-30T14:46:50.542Z,9.03
2019-04-30T14:49:56.437Z,10.27
2019-04-30T14:52:14.268Z,9.53
2019-04-30T14:54:58.652Z,9.40
2019-04-30T14:57:54.294Z,8.77
2019-04-30T15:00:39.726Z,9.63
2019-04-30T15:03:09.863Z,9.97
2019-04-30T15:05:40.604Z,10.03
2019-04-30T15:08:08.789Z,9.03
2019-04-30T15:10:36.261Z,9.90
2019-04-30T15:13:03.712Z,8.67
2019-04-30T15:15:31.049Z,9.43
2019-04-30T15:17:59.293Z,8.53
2019-04-30T15:20:26.974Z,8.47
2019-04-30T15:23:25.870Z,8.30
2019-04-30T15:25:53.290Z,8.17
2019-04-30T15:28:20.885Z,9.40
2019-04-30T15:30:48.812Z,9.77
2019-04-30T15:33:23.547Z,10.00
2019-04-30T15:35:50.947Z,9.03
2019-04-30T15:38:19.356Z,9.43
2019-04-30T15:40:46.846Z,8.87
2019-04-30T15:43:14.249Z,10.13
2019-04-30T15:45:41.654Z,9.63
2019-04-30T15:48:09.091Z,9.90
2019-04-30T15:50:36.498Z,8.83
2019-04-30T15:53:03.988Z,7.87
2019-04-30T15:55:31.539Z,8.63
2019-04-30T15:58:09.306Z,8.30
2019-04-30T16:00:36.881Z,8.80
2019-04-30T16:03:09.967Z,7.43
2019-04-30T16:05:40.599Z,9.50
2019-04-30T16:08:22.486Z,8.60
2019-04-30T16:11:10.384Z,8.87
2019-04-30T16:13:55.433Z,7.23
2019-04-30T16:16:24.192Z,7.13
2019-04-30T16:18:51.528Z,8.57
2019-04-30T16:21:19.391Z,8.63
2019-04-30T16:23:48.707Z,8.30
2019-04-30T16:26:16.694Z,9.77
2019-04-30T16:28:44.154Z,9.50
2019-04-30T16:31:13.191Z,10.37
2019-04-30T16:33:51.896Z,8.27
2019-04-30T16:36:19.594Z,8.10
2019-04-30T16:38:48.706Z,7.70
2019-04-30T16:41:28.485Z,8.80
2019-04-30T16:43:45.734Z,8.90
2019-04-30T16:46:13.067Z,9.17
2019-04-30T16:48:40.572Z,9.00
2019-04-30T16:51:09.119Z,7.17
2019-04-30T16:53:38.338Z,8.73
2019-04-30T16:56:05.986Z,8.30
2019-04-30T16:58:52.150Z,7.93
2019-04-30T17:01:19.514Z,7.87
2019-04-30T17:03:50.421Z,7.40
2019-04-30T17:06:20.080Z,6.97
2019-04-30T17:08:54.812Z,7.93
2019-04-30T17:11:40.324Z,7.57
2019-04-30T17:14:11.022Z,7.03
2019-04-30T17:16:39.144Z,8.03
2019-04-30T17:19:06.726Z,7.17
2019-04-30T17:21:34.215Z,8.20
2019-04-30T17:24:01.705Z,7.50
2019-04-30T17:26:29.168Z,7.17
2019-04-30T17:28:56.920Z,7.67
2019-04-30T17:31:24.326Z,6.93
2019-04-30T17:33:51.644Z,7.30
2019-04-30T17:36:19.128Z,6.70
2019-04-30T17:38:46.654Z,6.97
2019-04-30T17:41:14.015Z,7.90
2019-04-30T17:43:41.684Z,7.80
2019-04-30T17:46:09.418Z,7.57
2019-04-30T17:48:36.813Z,7.10
2019-04-30T17:51:04.287Z,6.37
2019-04-30T17:53:32.726Z,7.97
2019-04-30T17:56:00.255Z,7.77
2019-04-30T17:58:27.766Z,7.93
2019-04-30T18:00:57.022Z,8.47
2019-04-30T18:03:24.555Z,7.83
2019-04-30T18:05:52.029Z,8.97
2019-04-30T18:08:20.248Z,8.83
2019-04-30T18:10:47.710Z,8.07
2019-04-30T18:13:15.233Z,8.60
2019-04-30T18:15:45.163Z,8.13
2019-04-30T18:18:18.540Z,7.97
2019-04-30T18:21:23.893Z,7.93
2019-04-30T18:24:12.273Z,8.27
2019-04-30T18:26:46.964Z,8.03
2019-04-30T18:29:20.836Z,8.90
2019-04-30T18:31:48.530Z,8.47
2019-04-30T18:34:15.995Z,8.60
2019-04-30T18:36:43.370Z,9.00
2019-04-30T18:39:10.914Z,8.73
2019-04-30T18:41:38.369Z,8.03
2019-04-30T18:44:05.839Z,8.40
2019-04-30T18:46:33.381Z,7.93
2019-04-30T18:49:00.941Z,10.40
2019-04-30T18:51:38.310Z,9.30
2019-04-30T18:53:57.605Z,8.07
2019-04-30T18:56:25.195Z,8.20
2019-04-30T18:58:52.635Z,8.67
2019-04-30T19:01:20.639Z,10.00
2019-04-30T19:03:49.216Z,8.80
2019-04-30T19:06:23.665Z,9.17
2019-04-30T19:09:00.292Z,8.20
2019-04-30T19:11:36.037Z,8.33
2019-04-30T19:14:41.195Z,9.60
2019-04-30T19:17:46.046Z,8.93
2019-04-30T19:20:19.907Z,8.37
2019-04-30T19:22:50.086Z,8.40
2019-04-30T19:25:19.088Z,9.20
2019-04-30T19:27:46.811Z,10.13
2019-04-30T19:30:14.556Z,10.10
2019-04-30T19:32:54.806Z,9.47
2019-04-30T19:35:22.234Z,8.30
2019-04-30T19:37:49.796Z,9.37
2019-04-30T19:40:19.040Z,8.03
2019-04-30T19:42:48.873Z,10.20
2019-04-30T19:45:16.128Z,9.97
2019-04-30T19:47:43.701Z,9.43
2019-04-30T19:50:13.988Z,9.03
2019-04-30T19:52:40.877Z,9.40
2019-04-30T19:55:08.707Z,9.60
2019-04-30T19:57:36.378Z,9.37
2019-04-30T20:00:05.335Z,8.93
2019-04-30T20:02:34.263Z,9.13
2019-04-30T20:05:05.036Z,9.40
2019-04-30T20:07:32.517Z,8.60
2019-04-30T20:10:04.101Z,8.57
2019-04-30T20:12:30.784Z,10.17
2019-04-30T20:15:00.447Z,10.23
2019-04-30T20:17:29.545Z,10.37
2019-04-30T20:20:18.798Z,10.40
2019-04-30T20:22:46.118Z,9.40
2019-04-30T20:25:13.659Z,10.00
2019-04-30T20:27:44.146Z,9.87
2019-04-30T20:30:11.990Z,9.90
2019-04-30T20:32:39.476Z,8.87
2019-04-30T20:35:07.214Z,10.50
2019-04-30T20:37:54.298Z,9.27
2019-04-30T20:40:23.062Z,8.87
2019-04-30T20:42:50.621Z,9.03
2019-04-30T20:45:18.867Z,9.20
2019-04-30T20:47:50.098Z,9.90
2019-04-30T20:50:17.712Z,8.23
2019-04-30T20:52:45.216Z,9.00
2019-04-30T20:55:12.816Z,9.67
2019-04-30T20:57:40.361Z,10.30
2019-04-30T21:00:08.289Z,9.63
2019-04-30T21:02:38.765Z,9.00
2019-04-30T21:05:06.471Z,9.90
2019-04-30T21:07:36.209Z,10.20
2019-04-30T21:10:03.957Z,11.07
2019-04-30T21:12:31.718Z,10.33
2019-04-30T21:14:59.612Z,9.30
2019-04-30T21:20:01.016Z,9.70
2019-04-30T21:22:29.630Z,9.43
2019-04-30T21:25:00.316Z,9.67
2019-04-30T21:27:28.268Z,10.23
2019-04-30T21:29:55.980Z,9.60
2019-04-30T21:32:48.771Z,8.30
2019-04-30T21:35:35.439Z,9.23
2019-04-30T21:38:03.045Z,8.87
2019-04-30T21:40:30.766Z,9.80
2019-04-30T21:42:58.287Z,9.03
2019-04-30T21:45:25.841Z,10.53
2019-04-30T21:47:56.520Z,10.40
2019-04-30T21:50:22.818Z,10.10
2019-04-30T21:52:50.887Z,9.83
2019-04-30T21:55:19.780Z,9.40
2019-04-30T21:57:49.524Z,10.00
2019-04-30T22:00:34.989Z,10.13
2019-04-30T22:03:03.272Z,10.13
2019-04-30T22:05:30.850Z,9.47
2019-04-30T22:07:59.150Z,9.97
2019-04-30T22:10:26.828Z,10.30
2019-04-30T22:12:54.298Z,10.63
2019-04-30T22:15:21.729Z,9.37
2019-04-30T22:17:50.070Z,9.47
2019-04-30T22:20:19.053Z,10.40
2019-04-30T22:22:46.755Z,9.60
2019-04-30T22:25:14.910Z,9.17
2019-04-30T22:27:42.389Z,10.70
2019-04-30T22:30:10.135Z,11.30
2019-04-30T22:32:37.682Z,10.60
2019-04-30T22:35:24.948Z,9.67
2019-04-30T22:37:54.884Z,9.83
2019-04-30T22:40:22.336Z,9.67
2019-04-30T22:42:49.812Z,10.37
2019-04-30T22:45:38.277Z,12.37
2019-04-30T22:48:08.778Z,10.17
2019-04-30T22:50:36.334Z,10.17
2019-04-30T22:53:03.849Z,10.27
2019-04-30T22:55:31.327Z,10.70
2019-04-30T22:57:58.801Z,9.83
2019-04-30T23:00:37.574Z,10.00
2019-04-30T23:03:09.326Z,10.07
2019-04-30T23:05:36.693Z,10.07
2019-04-30T23:08:04.429Z,11.23
2019-04-30T23:10:31.890Z,9.30
2019-04-30T23:12:59.346Z,11.00
2019-04-30T23:15:26.741Z,11.30
2019-04-30T23:17:54.234Z,10.00
2019-04-30T23:20:21.709Z,9.30
2019-04-30T23:22:49.201Z,9.97
2019-04-30T23:25:16.711Z,8.90
2019-04-30T23:27:44.443Z,9.33
2019-04-30T23:30:12.425Z,8.93
2019-04-30T23:32:39.929Z,9.23
2019-04-30T23:35:08.417Z,10.33
2019-04-30T23:37:35.982Z,9.13
2019-04-30T23:40:23.275Z,9.90
2019-04-30T23:42:51.235Z,9.70
2019-04-30T23:45:18.807Z,9.87
2019-04-30T23:48:00.606Z,10.20
2019-04-30T23:50:28.001Z,10.00
2019-04-30T23:52:55.451Z,9.40
2019-04-30T23:55:22.985Z,9.57
2019-04-30T23:57:50.418Z,10.03
